createdAt,value
2023-05-24T00:00:17.509Z,65.70
2023-05-24T00:03:21.739Z,66.26
2023-05-24T00:06:28.561Z,65.95
2023-05-24T00:09:32.100Z,66.45
2023-05-24T00:12:35.485Z,66.02
2023-05-24T00:15:38.102Z,65.88
2023-05-24T00:18:42.142Z,66.02
2023-05-24T00:21:48.029Z,65.88
2023-05-24T00:24:50.684Z,65.71
2023-05-24T00:27:53.980Z,65.66
2023-05-24T00:30:56.575Z,65.60
2023-05-24T00:33:59.274Z,65.15
2023-05-24T00:37:01.826Z,65.18
2023-05-24T00:40:06.601Z,65.65
2023-05-24T00:43:09.274Z,65.87
2023-05-24T00:46:17.569Z,66.11
2023-05-24T00:49:21.550Z,66.16
2023-05-24T00:52:24.442Z,65.66
2023-05-24T00:55:27.069Z,66.17
2023-05-24T00:58:33.527Z,65.84
2023-05-24T01:01:37.479Z,66.02
2023-05-24T01:04:40.211Z,65.25
2023-05-24T01:07:55.098Z,65.69
2023-05-24T01:11:06.630Z,65.77
2023-05-24T01:14:10.023Z,65.50
2023-05-24T01:17:26.696Z,65.46
2023-05-24T01:20:33.340Z,64.96
2023-05-24T01:23:56.201Z,64.89
2023-05-24T01:27:08.901Z,65.03
2023-05-24T01:30:12.949Z,64.83
2023-05-24T01:33:15.689Z,64.99
2023-05-24T01:36:18.518Z,65.97
2023-05-24T01:39:23.088Z,66.08
2023-05-24T01:42:52.478Z,65.88
2023-05-24T01:46:09.239Z,65.95
2023-05-24T01:49:27.312Z,66.18
2023-05-24T01:52:33.894Z,66.30
2023-05-24T01:55:38.230Z,65.34
2023-05-24T01:58:44.038Z,65.85
2023-05-24T02:01:47.925Z,65.30
2023-05-24T02:04:50.626Z,65.41
2023-05-24T02:07:53.365Z,65.86
2023-05-24T02:10:56.063Z,65.58
2023-05-24T02:14:01.328Z,66.38
2023-05-24T02:17:06.117Z,66.45
2023-05-24T02:20:13.543Z,66.86
2023-05-24T02:23:16.310Z,67.34
2023-05-24T02:26:19.989Z,67.45
2023-05-24T02:29:23.208Z,68.18
2023-05-24T02:32:26.303Z,68.54
2023-05-24T02:35:29.422Z,68.88
2023-05-24T02:38:32.270Z,69.16
2023-05-24T02:41:38.663Z,68.96
2023-05-24T02:44:42.879Z,69.62
2023-05-24T02:47:46.864Z,69.73
2023-05-24T02:50:49.396Z,69.62
2023-05-24T02:53:51.925Z,69.59
2023-05-24T02:56:58.026Z,69.77
2023-05-24T03:00:01.118Z,70.21
2023-05-24T03:03:05.911Z,69.99
2023-05-24T03:06:08.713Z,69.73
2023-05-24T03:09:12.167Z,70.23
2023-05-24T03:12:18.269Z,70.33
2023-05-24T03:15:21.502Z,70.01
2023-05-24T03:18:24.912Z,70.06
2023-05-24T03:21:32.136Z,70.01
2023-05-24T03:24:38.570Z,70.90
2023-05-24T03:27:42.463Z,70.69
2023-05-24T03:30:46.370Z,71.58
2023-05-24T03:33:50.096Z,71.16
2023-05-24T03:36:52.888Z,71.32
2023-05-24T03:39:56.248Z,70.72
2023-05-24T03:43:11.062Z,70.36
2023-05-24T03:46:35.565Z,70.25
2023-05-24T03:49:39.035Z,70.06
2023-05-24T03:52:44.127Z,70.23
2023-05-24T03:55:49.432Z,70.08
2023-05-24T03:58:53.500Z,69.79
2023-05-24T04:01:58.461Z,69.08
2023-05-24T04:05:02.862Z,69.12
2023-05-24T04:08:06.497Z,68.76
2023-05-24T04:11:09.144Z,68.69
2023-05-24T04:14:13.302Z,68.31
2023-05-24T04:17:17.254Z,68.27
2023-05-24T04:20:20.159Z,68.00
2023-05-24T04:23:25.015Z,68.71
2023-05-24T04:26:29.621Z,68.36
2023-05-24T04:29:34.554Z,68.70
2023-05-24T04:32:37.260Z,68.95
2023-05-24T04:35:41.763Z,69.21
2023-05-24T04:38:46.324Z,69.06
2023-05-24T04:41:54.134Z,68.91
2023-05-24T04:44:58.192Z,68.98
2023-05-24T04:48:02.023Z,68.60
2023-05-24T04:51:05.921Z,68.93
2023-05-24T04:54:11.444Z,68.85
2023-05-24T04:57:15.114Z,68.59
2023-05-24T05:00:19.003Z,68.36
2023-05-24T05:03:22.781Z,68.38
2023-05-24T05:06:26.509Z,67.82
2023-05-24T05:09:29.870Z,67.50
2023-05-24T05:12:32.517Z,66.53
2023-05-24T05:15:35.149Z,66.74
2023-05-24T05:18:38.552Z,66.41
2023-05-24T05:21:41.348Z,65.75
2023-05-24T05:24:43.966Z,65.51
2023-05-24T05:27:46.976Z,65.69
2023-05-24T05:30:49.713Z,64.48
2023-05-24T05:33:53.117Z,64.54
2023-05-24T05:36:55.928Z,64.41
2023-05-24T05:39:58.839Z,65.25
2023-05-24T05:43:01.397Z,65.61
2023-05-24T05:46:06.312Z,65.38
2023-05-24T05:49:10.267Z,66.20
2023-05-24T05:52:14.775Z,66.03
2023-05-24T05:55:17.579Z,66.70
2023-05-24T05:58:20.094Z,65.49
2023-05-24T06:01:23.570Z,64.86
2023-05-24T06:04:26.178Z,64.93
2023-05-24T06:07:29.104Z,64.72
2023-05-24T06:10:31.649Z,64.76
2023-05-24T06:13:34.194Z,63.63
2023-05-24T06:16:42.157Z,63.26
2023-05-24T06:19:47.030Z,63.51
2023-05-24T06:22:51.873Z,62.89
2023-05-24T06:25:54.729Z,62.02
2023-05-24T06:28:57.261Z,61.57
2023-05-24T06:32:00.933Z,62.12
2023-05-24T06:35:04.289Z,61.82
2023-05-24T06:38:07.195Z,61.60
2023-05-24T06:41:09.777Z,61.64
2023-05-24T06:44:12.794Z,60.87
2023-05-24T06:47:15.602Z,61.20
2023-05-24T06:50:19.875Z,61.53
2023-05-24T06:53:23.436Z,61.31
2023-05-24T06:56:28.056Z,61.60
2023-05-24T06:59:32.287Z,61.59
2023-05-24T07:02:34.983Z,61.47
2023-05-24T07:05:38.237Z,61.41
2023-05-24T07:08:44.035Z,61.49
2023-05-24T07:11:47.610Z,61.25
2023-05-24T07:14:51.722Z,60.83
2023-05-24T07:17:54.858Z,59.91
2023-05-24T07:20:57.483Z,59.27
2023-05-24T07:24:01.599Z,58.41
2023-05-24T07:27:04.975Z,57.86
2023-05-24T07:30:19.783Z,57.54
2023-05-24T07:33:31.456Z,56.58
2023-05-24T07:36:35.201Z,56.52
2023-05-24T07:39:39.074Z,55.76
2023-05-24T07:42:42.028Z,55.13
2023-05-24T07:45:45.114Z,54.96
2023-05-24T07:48:48.263Z,54.58
2023-05-24T07:51:50.901Z,53.35
2023-05-24T07:54:53.607Z,52.79
2023-05-24T07:57:56.854Z,52.16
2023-05-24T08:01:00.441Z,53.12
2023-05-24T08:04:06.259Z,51.99
2023-05-24T08:07:11.113Z,51.71
2023-05-24T08:10:14.961Z,51.27
2023-05-24T08:13:17.650Z,50.23
2023-05-24T08:16:20.217Z,50.04
2023-05-24T08:19:24.411Z,50.34
2023-05-24T08:22:27.042Z,49.29
2023-05-24T08:25:29.873Z,49.83
2023-05-24T08:28:32.954Z,48.85
2023-05-24T08:31:35.808Z,48.75
2023-05-24T08:34:39.005Z,48.36
2023-05-24T08:37:41.656Z,47.26
2023-05-24T08:40:45.196Z,46.71
2023-05-24T08:43:48.419Z,45.96
2023-05-24T08:46:52.010Z,45.57
2023-05-24T08:49:55.958Z,46.07
2023-05-24T08:53:00.112Z,45.13
2023-05-24T08:56:03.733Z,44.90
2023-05-24T08:59:08.655Z,46.60
2023-05-24T09:02:15.803Z,45.45
2023-05-24T09:05:21.828Z,44.42
2023-05-24T09:08:25.189Z,42.72
2023-05-24T09:11:28.852Z,43.60
2023-05-24T09:14:31.679Z,42.93
2023-05-24T09:17:36.600Z,42.83
2023-05-24T09:20:39.376Z,42.56
2023-05-24T09:23:42.700Z,43.09
2023-05-24T09:26:45.275Z,44.06
2023-05-24T09:29:54.844Z,43.85
2023-05-24T09:33:01.632Z,43.13
2023-05-24T09:36:06.665Z,43.56
2023-05-24T09:39:11.747Z,42.54
2023-05-24T09:42:24.587Z,42.39
2023-05-24T09:45:28.895Z,41.82
2023-05-24T09:48:32.050Z,41.87
2023-05-24T09:51:39.880Z,41.27
2023-05-24T09:54:43.416Z,41.39
2023-05-24T09:57:52.003Z,40.05
2023-05-24T10:01:05.210Z,39.97
2023-05-24T10:04:10.296Z,39.01
2023-05-24T10:07:13.696Z,38.92
2023-05-24T10:10:17.058Z,38.17
2023-05-24T10:13:23.322Z,37.51
2023-05-24T10:16:26.853Z,36.98
2023-05-24T10:19:29.650Z,36.73
2023-05-24T10:22:34.982Z,36.42
2023-05-24T10:25:44.984Z,36.94
2023-05-24T10:28:55.138Z,36.67
2023-05-24T10:31:58.301Z,36.34
2023-05-24T10:35:01.930Z,35.86
2023-05-24T10:38:08.068Z,35.02
2023-05-24T10:41:13.159Z,35.87
2023-05-24T10:44:20.502Z,34.94
2023-05-24T10:47:28.874Z,34.16
2023-05-24T10:50:31.864Z,33.39
2023-05-24T10:53:40.965Z,33.83
2023-05-24T10:56:48.859Z,33.62
2023-05-24T10:59:52.953Z,32.75
2023-05-24T11:03:04.254Z,33.40
2023-05-24T11:06:07.761Z,32.68
2023-05-24T11:09:10.868Z,31.65
2023-05-24T11:12:17.970Z,31.40
2023-05-24T11:15:25.206Z,31.19
2023-05-24T11:18:28.136Z,30.74
2023-05-24T11:21:32.046Z,31.66
2023-05-24T11:24:37.541Z,30.89
2023-05-24T11:27:46.653Z,29.58
2023-05-24T11:30:50.784Z,28.10
2023-05-24T11:33:53.251Z,26.58
2023-05-24T11:36:56.498Z,24.48
2023-05-24T11:39:59.297Z,25.87
2023-05-24T11:43:01.931Z,28.79
2023-05-24T11:46:04.791Z,29.31
2023-05-24T11:49:07.670Z,23.91
2023-05-24T11:52:10.280Z,20.29
2023-05-24T11:55:17.323Z,22.64
2023-05-24T11:58:23.735Z,19.83
2023-05-24T12:01:27.723Z,23.71
2023-05-24T12:04:31.418Z,24.87
2023-05-24T12:07:34.545Z,27.64
2023-05-24T12:10:38.268Z,28.84
2023-05-24T12:13:41.224Z,30.47
2023-05-24T12:16:45.554Z,32.16
2023-05-24T12:19:50.948Z,31.67
2023-05-24T12:22:55.016Z,30.54
2023-05-24T12:26:02.066Z,26.44
2023-05-24T12:29:05.227Z,20.45
2023-05-24T12:32:13.184Z,19.14
2023-05-24T12:35:19.698Z,24.32
2023-05-24T12:38:25.733Z,26.75
2023-05-24T12:41:30.662Z,27.90
2023-05-24T12:44:37.693Z,28.96
2023-05-24T12:47:41.001Z,26.44
2023-05-24T12:50:44.306Z,20.24
2023-05-24T12:53:47.493Z,25.48
2023-05-24T12:56:52.888Z,28.54
2023-05-24T12:59:57.049Z,29.28
2023-05-24T13:03:00.182Z,21.85
2023-05-24T13:06:02.869Z,18.75
2023-05-24T13:09:06.558Z,17.92
2023-05-24T13:12:09.969Z,17.28
2023-05-24T13:15:13.000Z,16.45
2023-05-24T13:18:16.307Z,16.10
2023-05-24T13:21:24.377Z,15.64
2023-05-24T13:24:27.817Z,18.50
2023-05-24T13:27:31.161Z,16.45
2023-05-24T13:30:33.833Z,15.70
2023-05-24T13:33:36.423Z,17.67
2023-05-24T13:36:39.565Z,18.30
2023-05-24T13:39:42.270Z,20.43
2023-05-24T13:42:44.903Z,20.78
2023-05-24T13:45:47.816Z,18.39
2023-05-24T13:48:50.596Z,22.83
2023-05-24T13:51:56.452Z,20.15
2023-05-24T13:55:04.862Z,19.45
2023-05-24T13:58:07.882Z,19.30
2023-05-24T14:01:11.470Z,24.01
2023-05-24T14:04:14.163Z,28.26
2023-05-24T14:07:16.785Z,30.61
2023-05-24T14:10:21.252Z,30.29
2023-05-24T14:14:07.540Z,30.29
2023-05-24T14:16:51.808Z,30.49
2023-05-24T14:19:54.417Z,30.97
2023-05-24T14:22:58.602Z,31.89
2023-05-24T14:26:02.101Z,31.49
2023-05-24T14:29:04.804Z,31.41
2023-05-24T14:32:07.564Z,31.65
2023-05-24T14:35:10.237Z,32.30
2023-05-24T14:38:12.928Z,31.93
2023-05-24T14:41:16.377Z,32.23
2023-05-24T14:44:20.523Z,32.78
2023-05-24T14:47:23.215Z,33.25
2023-05-24T14:50:25.735Z,33.36
2023-05-24T14:53:29.807Z,33.35
2023-05-24T14:56:33.799Z,33.96
2023-05-24T14:59:36.397Z,34.48
2023-05-24T15:02:39.223Z,35.56
2023-05-24T15:05:42.956Z,35.94
2023-05-24T15:08:45.707Z,36.27
2023-05-24T15:11:48.329Z,36.54
2023-05-24T15:14:50.991Z,36.59
2023-05-24T15:17:54.012Z,37.74
2023-05-24T15:20:56.921Z,37.84
2023-05-24T15:24:02.206Z,37.79
2023-05-24T15:27:04.998Z,37.75
2023-05-24T15:30:08.417Z,37.50
2023-05-24T15:33:11.285Z,37.57
2023-05-24T15:36:16.866Z,37.25
2023-05-24T15:39:21.769Z,37.43
2023-05-24T15:42:25.269Z,37.48
2023-05-24T15:45:27.871Z,37.58
2023-05-24T15:48:31.610Z,38.16
2023-05-24T15:52:03.092Z,38.80
2023-05-24T15:54:58.385Z,40.02
2023-05-24T15:58:03.362Z,40.05
2023-05-24T16:01:07.271Z,40.08
2023-05-24T16:04:09.824Z,40.90
2023-05-24T16:07:13.020Z,41.11
2023-05-24T16:10:15.678Z,41.50
2023-05-24T16:13:18.308Z,41.51
2023-05-24T16:16:23.687Z,41.17
2023-05-24T16:19:26.874Z,41.46
2023-05-24T16:22:29.363Z,41.82
2023-05-24T16:25:33.498Z,42.27
2023-05-24T16:28:36.148Z,42.32
2023-05-24T16:31:38.810Z,42.80
2023-05-24T16:34:55.984Z,42.16
2023-05-24T16:37:58.967Z,42.51
2023-05-24T16:41:01.510Z,42.24
2023-05-24T16:44:04.868Z,42.39
2023-05-24T16:47:07.850Z,42.40
2023-05-24T16:50:15.086Z,42.47
2023-05-24T16:53:18.258Z,42.96
2023-05-24T16:56:20.841Z,42.93
2023-05-24T16:59:23.978Z,43.45
2023-05-24T17:02:26.621Z,43.79
2023-05-24T17:05:30.712Z,43.96
2023-05-24T17:08:34.701Z,44.63
2023-05-24T17:11:37.167Z,45.33
2023-05-24T17:14:39.582Z,45.91
2023-05-24T17:17:42.286Z,46.75
2023-05-24T17:20:46.001Z,47.41
2023-05-24T17:23:48.841Z,47.43
2023-05-24T17:26:51.379Z,47.94
2023-05-24T17:29:54.988Z,48.38
2023-05-24T17:32:58.093Z,48.56
2023-05-24T17:36:04.311Z,48.96
2023-05-24T17:39:07.288Z,49.92
2023-05-24T17:42:09.803Z,50.13
2023-05-24T17:45:12.568Z,50.80
2023-05-24T17:48:16.187Z,51.39
2023-05-24T17:51:20.026Z,51.49
2023-05-24T17:54:22.969Z,52.31
2023-05-24T17:57:27.116Z,52.72
2023-05-24T18:00:33.125Z,52.92
2023-05-24T18:03:37.525Z,53.20
2023-05-24T18:06:40.529Z,53.75
2023-05-24T18:09:43.162Z,53.90
2023-05-24T18:12:46.771Z,54.26
2023-05-24T18:15:50.638Z,54.38
2023-05-24T18:18:53.223Z,54.60
2023-05-24T18:21:56.015Z,54.50
2023-05-24T18:24:59.230Z,54.19
2023-05-24T18:28:02.964Z,54.32
2023-05-24T18:31:13.471Z,53.87
2023-05-24T18:34:16.102Z,54.75
2023-05-24T18:37:23.165Z,54.75
2023-05-24T18:40:25.899Z,55.33
2023-05-24T18:43:29.051Z,55.99
2023-05-24T18:46:33.252Z,56.04
2023-05-24T18:49:37.199Z,56.40
2023-05-24T18:52:40.652Z,56.90
2023-05-24T18:55:44.514Z,57.35
2023-05-24T18:58:50.377Z,57.70
2023-05-24T19:01:54.138Z,57.98
2023-05-24T19:04:58.539Z,57.72
2023-05-24T19:08:01.410Z,58.12
2023-05-24T19:11:04.738Z,58.28
2023-05-24T19:14:08.370Z,58.34
2023-05-24T19:17:11.574Z,58.27
2023-05-24T19:20:14.303Z,58.06
2023-05-24T19:23:17.193Z,58.45
2023-05-24T19:26:20.298Z,59.06
2023-05-24T19:29:22.901Z,58.77
2023-05-24T19:32:25.829Z,58.83
2023-05-24T19:35:28.410Z,59.42
2023-05-24T19:38:30.969Z,59.08
2023-05-24T19:41:34.445Z,59.30
2023-05-24T19:44:37.131Z,59.49
2023-05-24T19:47:40.066Z,60.04
2023-05-24T19:50:42.717Z,59.62
2023-05-24T19:53:47.243Z,59.72
2023-05-24T19:56:51.901Z,59.57
2023-05-24T19:59:55.015Z,59.52
2023-05-24T20:02:57.732Z,59.13
2023-05-24T20:06:01.390Z,59.39
2023-05-24T20:09:05.325Z,59.97
2023-05-24T20:12:09.382Z,60.27
2023-05-24T20:15:16.010Z,60.32
2023-05-24T20:18:18.493Z,60.28
2023-05-24T20:21:21.104Z,60.57
2023-05-24T20:24:24.076Z,60.42
2023-05-24T20:27:26.678Z,60.83
2023-05-24T20:30:30.315Z,60.94
2023-05-24T20:33:37.990Z,61.10
2023-05-24T20:36:42.791Z,60.83
2023-05-24T20:39:47.217Z,61.01
2023-05-24T20:42:50.039Z,61.05
2023-05-24T20:45:52.973Z,61.48
2023-05-24T20:48:57.468Z,61.10
2023-05-24T20:52:00.179Z,61.03
2023-05-24T20:55:03.902Z,61.66
2023-05-24T20:58:06.642Z,61.75
2023-05-24T21:01:09.334Z,62.11
2023-05-24T21:04:12.113Z,61.93
2023-05-24T21:07:14.696Z,61.82
2023-05-24T21:10:18.752Z,62.57
2023-05-24T21:13:22.207Z,62.71
2023-05-24T21:16:25.299Z,63.38
2023-05-24T21:19:28.202Z,62.75
2023-05-24T21:22:30.775Z,62.65
2023-05-24T21:25:34.694Z,63.76
2023-05-24T21:28:38.016Z,63.33
2023-05-24T21:31:42.219Z,63.86
2023-05-24T21:34:46.305Z,64.17
2023-05-24T21:37:49.932Z,64.59
2023-05-24T21:40:52.794Z,63.91
2023-05-24T21:43:55.525Z,64.71
2023-05-24T21:46:58.163Z,64.57
2023-05-24T21:50:00.944Z,64.55
2023-05-24T21:53:04.130Z,64.49
2023-05-24T21:56:06.763Z,64.83
2023-05-24T21:59:10.506Z,64.74
2023-05-24T22:02:14.403Z,65.08
2023-05-24T22:05:17.156Z,65.24
2023-05-24T22:08:19.729Z,64.87
2023-05-24T22:11:22.445Z,65.51
2023-05-24T22:14:24.979Z,65.82
2023-05-24T22:17:29.441Z,66.03
2023-05-24T22:20:32.202Z,65.85
2023-05-24T22:23:34.892Z,65.31
2023-05-24T22:26:38.473Z,65.46
2023-05-24T22:29:41.194Z,65.36
2023-05-24T22:32:45.354Z,65.78
2023-05-24T22:35:48.263Z,65.71
2023-05-24T22:38:50.960Z,65.89
2023-05-24T22:41:53.859Z,66.03
2023-05-24T22:44:56.619Z,66.47
2023-05-24T22:47:59.714Z,66.18
2023-05-24T22:51:02.307Z,66.16
2023-05-24T22:54:05.039Z,65.45
2023-05-24T22:57:07.650Z,65.73
2023-05-24T23:00:12.019Z,65.64
2023-05-24T23:03:14.599Z,65.98
2023-05-24T23:06:17.595Z,66.64
2023-05-24T23:09:29.392Z,66.44
2023-05-24T23:12:32.243Z,67.42
2023-05-24T23:15:35.114Z,67.38
2023-05-24T23:18:42.933Z,66.36
2023-05-24T23:21:46.077Z,66.40
2023-05-24T23:24:49.067Z,65.64
2023-05-24T23:27:51.536Z,65.31
2023-05-24T23:30:54.195Z,65.04
2023-05-24T23:33:56.910Z,65.10
2023-05-24T23:37:03.510Z,64.98
2023-05-24T23:40:06.849Z,64.64
2023-05-24T23:43:10.923Z,64.57
2023-05-24T23:46:17.150Z,65.09
2023-05-24T23:49:20.621Z,64.57
2023-05-24T23:52:25.134Z,64.38
2023-05-24T23:55:27.973Z,65.18
2023-05-24T23:58:31.983Z,66.15
